sensor_id;sensor_type;location;lat;lon;timestamp;pressure;altitude;pressure_sealevel;temperature;humidity
49835;BME280;35729;52.090;13.162;2023-09-19T00:02:16;100060.38;;;17.09;86.46
49835;BME280;35729;52.090;13.162;2023-09-19T00:04:45;100063.03;;;17.09;86.29
49835;BME280;35729;52.090;13.162;2023-09-19T00:07:14;100060.47;;;17.07;86.38
49835;BME280;35729;52.090;13.162;2023-09-19T00:09:43;100056.97;;;17.07;86.38
49835;BME280;35729;52.090;13.162;2023-09-19T00:12:12;100050.81;;;17.06;86.30
49835;BME280;35729;52.090;13.162;2023-09-19T00:14:43;100057.06;;;17.05;86.25
49835;BME280;35729;52.090;13.162;2023-09-19T00:17:11;100054.41;;;17.05;86.20
49835;BME280;35729;52.090;13.162;2023-09-19T00:19:41;100060.75;;;17.03;86.59
49835;BME280;35729;52.090;13.162;2023-09-19T00:22:11;100058.19;;;17.01;86.26
49835;BME280;35729;52.090;13.162;2023-09-19T00:24:41;100061.78;;;17.00;86.16
49835;BME280;35729;52.090;13.162;2023-09-19T00:27:09;100060.94;;;17.00;86.33
49835;BME280;35729;52.090;13.162;2023-09-19T00:29:38;100059.22;;;16.99;86.45
49835;BME280;35729;52.090;13.162;2023-09-19T00:32:09;100063.66;;;16.98;86.60
49835;BME280;35729;52.090;13.162;2023-09-19T00:34:38;100057.53;;;16.98;86.21
49835;BME280;35729;52.090;13.162;2023-09-19T00:37:13;100056.66;;;16.97;86.39
49835;BME280;35729;52.090;13.162;2023-09-19T00:39:43;100058.38;;;16.98;86.04
49835;BME280;35729;52.090;13.162;2023-09-19T00:42:18;100058.38;;;16.98;86.52
49835;BME280;35729;52.090;13.162;2023-09-19T00:44:46;100055.72;;;16.98;86.17
49835;BME280;35729;52.090;13.162;2023-09-19T00:47:19;100064.59;;;16.97;86.46
49835;BME280;35729;52.090;13.162;2023-09-19T00:49:48;100063.66;;;16.98;85.96
49835;BME280;35729;52.090;13.162;2023-09-19T00:52:18;100061.94;;;16.97;86.27
49835;BME280;35729;52.090;13.162;2023-09-19T00:54:49;100062.91;;;16.96;86.31
49835;BME280;35729;52.090;13.162;2023-09-19T00:57:18;100059.50;;;16.94;86.08
49835;BME280;35729;52.090;13.162;2023-09-19T00:59:48;100053.34;;;16.93;85.91
49835;BME280;35729;52.090;13.162;2023-09-19T01:02:21;100050.78;;;16.92;85.97
49835;BME280;35729;52.090;13.162;2023-09-19T01:04:49;100054.28;;;16.92;86.21
49835;BME280;35729;52.090;13.162;2023-09-19T01:07:19;100060.44;;;16.93;86.39
49835;BME280;35729;52.090;13.162;2023-09-19T01:09:48;100061.38;;;16.92;86.04
49835;BME280;35729;52.090;13.162;2023-09-19T01:12:34;100065.00;;;16.91;86.30
49835;BME280;35729;52.090;13.162;2023-09-19T01:15:12;100061.44;;;16.90;86.26
49835;BME280;35729;52.090;13.162;2023-09-19T01:17:51;100055.31;;;16.90;86.08
49835;BME280;35729;52.090;13.162;2023-09-19T01:20:33;100066.66;;;16.92;86.52
49835;BME280;35729;52.090;13.162;2023-09-19T01:23:13;100068.47;;;16.91;86.15
49835;BME280;35729;52.090;13.162;2023-09-19T01:26:05;100076.44;;;16.91;86.55
49835;BME280;35729;52.090;13.162;2023-09-19T01:28:52;100073.78;;;16.91;86.20
49835;BME280;35729;52.090;13.162;2023-09-19T01:31:30;100072.84;;;16.92;86.18
49835;BME280;35729;52.090;13.162;2023-09-19T01:34:02;100076.34;;;16.93;86.12
49835;BME280;35729;52.090;13.162;2023-09-19T01:36:34;100078.03;;;16.94;86.38
49835;BME280;35729;52.090;13.162;2023-09-19T01:39:05;100077.22;;;16.93;86.54
49835;BME280;35729;52.090;13.162;2023-09-19T01:41:55;100085.91;;;16.96;86.30
49835;BME280;35729;52.090;13.162;2023-09-19T01:44:30;100073.53;;;16.96;86.54
49835;BME280;35729;52.090;13.162;2023-09-19T01:47:09;100078.81;;;16.96;86.29
49835;BME280;35729;52.090;13.162;2023-09-19T01:49:48;100071.81;;;16.95;86.30
49835;BME280;35729;52.090;13.162;2023-09-19T01:52:20;100079.84;;;16.93;86.57
49835;BME280;35729;52.090;13.162;2023-09-19T01:54:52;100089.47;;;16.94;86.53
49835;BME280;35729;52.090;13.162;2023-09-19T01:57:26;100095.66;;;16.95;86.25
49835;BME280;35729;52.090;13.162;2023-09-19T02:00:02;100097.53;;;16.93;86.53
49835;BME280;35729;52.090;13.162;2023-09-19T02:02:38;100093.22;;;16.90;86.69
49835;BME280;35729;52.090;13.162;2023-09-19T02:05:08;100097.69;;;16.90;86.49
49835;BME280;35729;52.090;13.162;2023-09-19T02:07:38;100089.91;;;16.87;86.47
49835;BME280;35729;52.090;13.162;2023-09-19T02:10:07;100105.91;;;16.85;86.67
49835;BME280;35729;52.090;13.162;2023-09-19T02:12:37;100106.94;;;16.83;86.79
49835;BME280;35729;52.090;13.162;2023-09-19T02:15:07;100101.81;;;16.80;86.80
49835;BME280;35729;52.090;13.162;2023-09-19T02:17:38;100114.28;;;16.77;87.12
49835;BME280;35729;52.090;13.162;2023-09-19T02:20:08;100103.94;;;16.73;86.89
49835;BME280;35729;52.090;13.162;2023-09-19T02:22:40;100104.97;;;16.70;87.27
49835;BME280;35729;52.090;13.162;2023-09-19T02:25:09;100107.81;;;16.67;87.33
49835;BME280;35729;52.090;13.162;2023-09-19T02:27:39;100116.78;;;16.65;87.13
49835;BME280;35729;52.090;13.162;2023-09-19T02:30:08;100107.22;;;16.62;87.57
49835;BME280;35729;52.090;13.162;2023-09-19T02:32:40;100118.84;;;16.59;87.67
49835;BME280;35729;52.090;13.162;2023-09-19T02:35:08;100115.44;;;16.57;87.67
49835;BME280;35729;52.090;13.162;2023-09-19T02:37:40;100121.75;;;16.55;87.90
49835;BME280;35729;52.090;13.162;2023-09-19T02:40:10;100127.16;;;16.53;87.93
49835;BME280;35729;52.090;13.162;2023-09-19T02:42:44;100126.47;;;16.50;87.96
49835;BME280;35729;52.090;13.162;2023-09-19T02:45:15;100128.34;;;16.48;87.98
49835;BME280;35729;52.090;13.162;2023-09-19T02:47:48;100131.06;;;16.46;88.33
49835;BME280;35729;52.090;13.162;2023-09-19T02:50:17;100135.59;;;16.44;88.17
49835;BME280;35729;52.090;13.162;2023-09-19T02:52:46;100132.28;;;16.40;88.56
49835;BME280;35729;52.090;13.162;2023-09-19T02:55:16;100134.16;;;16.38;88.49
49835;BME280;35729;52.090;13.162;2023-09-19T02:57:47;100134.25;;;16.37;88.52
49835;BME280;35729;52.090;13.162;2023-09-19T03:00:16;100137.91;;;16.34;88.97
49835;BME280;35729;52.090;13.162;2023-09-19T03:02:50;100133.66;;;16.32;88.75
49835;BME280;35729;52.090;13.162;2023-09-19T03:05:24;100132.97;;;16.28;89.03
49835;BME280;35729;52.090;13.162;2023-09-19T03:07:56;100138.34;;;16.26;89.15
49835;BME280;35729;52.090;13.162;2023-09-19T03:10:26;100144.56;;;16.25;88.98
49835;BME280;35729;52.090;13.162;2023-09-19T03:12:56;100142.94;;;16.23;89.08
49835;BME280;35729;52.090;13.162;2023-09-19T03:15:25;100141.25;;;16.22;89.42
49835;BME280;35729;52.090;13.162;2023-09-19T03:17:57;100151.91;;;16.20;89.28
49835;BME280;35729;52.090;13.162;2023-09-19T03:20:26;100150.19;;;16.19;89.41
49835;BME280;35729;52.090;13.162;2023-09-19T03:22:54;100141.47;;;16.17;89.45
49835;BME280;35729;52.090;13.162;2023-09-19T03:25:23;100138.09;;;16.15;89.55
49835;BME280;35729;52.090;13.162;2023-09-19T03:27:51;100139.09;;;16.12;89.62
49835;BME280;35729;52.090;13.162;2023-09-19T03:30:20;100138.31;;;16.10;89.83
49835;BME280;35729;52.090;13.162;2023-09-19T03:32:49;100143.69;;;16.09;89.64
49835;BME280;35729;52.090;13.162;2023-09-19T03:35:20;100148.31;;;16.05;89.75
49835;BME280;35729;52.090;13.162;2023-09-19T03:37:49;100155.47;;;16.03;90.05
49835;BME280;35729;52.090;13.162;2023-09-19T03:40:18;100152.06;;;16.01;90.14
49835;BME280;35729;52.090;13.162;2023-09-19T03:42:47;100159.22;;;15.99;89.95
49835;BME280;35729;52.090;13.162;2023-09-19T03:45:16;100165.53;;;15.96;90.19
49835;BME280;35729;52.090;13.162;2023-09-19T03:47:44;100169.19;;;15.94;90.52
49835;BME280;35729;52.090;13.162;2023-09-19T03:50:13;100166.69;;;15.91;90.68
49835;BME280;35729;52.090;13.162;2023-09-19T03:52:45;100163.28;;;15.89;90.65
49835;BME280;35729;52.090;13.162;2023-09-19T03:55:14;100164.47;;;15.83;90.78
49835;BME280;35729;52.090;13.162;2023-09-19T03:57:42;100158.44;;;15.79;91.12
49835;BME280;35729;52.090;13.162;2023-09-19T04:00:16;100174.31;;;15.79;91.21
49835;BME280;35729;52.090;13.162;2023-09-19T04:02:47;100171.84;;;15.76;91.21
49835;BME280;35729;52.090;13.162;2023-09-19T04:05:15;100182.50;;;15.75;91.31
49835;BME280;35729;52.090;13.162;2023-09-19T04:07:46;100186.16;;;15.72;91.26
49835;BME280;35729;52.090;13.162;2023-09-19T04:10:15;100180.09;;;15.70;91.26
49835;BME280;35729;52.090;13.162;2023-09-19T04:12:51;100176.66;;;15.68;91.67
49835;BME280;35729;52.090;13.162;2023-09-19T04:15:20;100178.63;;;15.64;91.65
49835;BME280;35729;52.090;13.162;2023-09-19T04:17:49;100201.56;;;15.64;91.92
49835;BME280;35729;52.090;13.162;2023-09-19T04:20:18;100196.34;;;15.62;91.73
49835;BME280;35729;52.090;13.162;2023-09-19T04:22:51;100201.78;;;15.59;91.77
49835;BME280;35729;52.090;13.162;2023-09-19T04:25:20;100207.16;;;15.58;91.97
49835;BME280;35729;52.090;13.162;2023-09-19T04:27:48;100209.03;;;15.56;92.16
49835;BME280;35729;52.090;13.162;2023-09-19T04:30:17;100205.63;;;15.54;92.11
49835;BME280;35729;52.090;13.162;2023-09-19T04:32:46;100202.28;;;15.50;92.11
49835;BME280;35729;52.090;13.162;2023-09-19T04:35:22;100211.22;;;15.47;92.05
49835;BME280;35729;52.090;13.162;2023-09-19T04:37:54;100218.34;;;15.45;92.18
49835;BME280;35729;52.090;13.162;2023-09-19T04:40:23;100218.44;;;15.44;92.29
49835;BME280;35729;52.090;13.162;2023-09-19T04:42:53;100235.31;;;15.41;92.57
49835;BME280;35729;52.090;13.162;2023-09-19T04:45:24;100237.09;;;15.41;92.67
49835;BME280;35729;52.090;13.162;2023-09-19T04:47:53;100233.75;;;15.37;92.78
49835;BME280;35729;52.090;13.162;2023-09-19T04:50:25;100242.63;;;15.36;92.97
49835;BME280;35729;52.090;13.162;2023-09-19T04:52:58;100248.81;;;15.35;93.03
49835;BME280;35729;52.090;13.162;2023-09-19T04:55:27;100248.06;;;15.33;93.33
49835;BME280;35729;52.090;13.162;2023-09-19T04:57:58;100242.84;;;15.31;93.36
49835;BME280;35729;52.090;13.162;2023-09-19T05:00:28;100249.00;;;15.32;93.39
49835;BME280;35729;52.090;13.162;2023-09-19T05:03:00;100250.94;;;15.28;93.39
49835;BME280;35729;52.090;13.162;2023-09-19T05:05:29;100257.13;;;15.27;93.59
49835;BME280;35729;52.090;13.162;2023-09-19T05:08:03;100257.13;;;15.27;93.20
49835;BME280;35729;52.090;13.162;2023-09-19T05:10:34;100262.28;;;15.30;92.80
49835;BME280;35729;52.090;13.162;2023-09-19T05:13:04;100269.25;;;15.31;92.48
49835;BME280;35729;52.090;13.162;2023-09-19T05:15:33;100272.69;;;15.34;92.18
49835;BME280;35729;52.090;13.162;2023-09-19T05:18:02;100283.13;;;15.37;91.54
49835;BME280;35729;52.090;13.162;2023-09-19T05:20:32;100283.91;;;15.39;90.49
49835;BME280;35729;52.090;13.162;2023-09-19T05:23:06;100271.78;;;15.35;89.80
49835;BME280;35729;52.090;13.162;2023-09-19T05:25:38;100284.69;;;15.41;89.41
49835;BME280;35729;52.090;13.162;2023-09-19T05:28:09;100287.16;;;15.44;88.60
49835;BME280;35729;52.090;13.162;2023-09-19T05:30:40;100291.53;;;15.45;88.00
49835;BME280;35729;52.090;13.162;2023-09-19T05:33:09;100296.72;;;15.46;87.52
49835;BME280;35729;52.090;13.162;2023-09-19T05:35:37;100298.38;;;15.49;86.60
49835;BME280;35729;52.090;13.162;2023-09-19T05:38:09;100300.88;;;15.52;86.40
49835;BME280;35729;52.090;13.162;2023-09-19T05:40:39;100303.53;;;15.52;85.50
49835;BME280;35729;52.090;13.162;2023-09-19T05:43:08;100313.16;;;15.53;84.93
49835;BME280;35729;52.090;13.162;2023-09-19T05:45:36;100313.09;;;15.55;84.25
49835;BME280;35729;52.090;13.162;2023-09-19T05:48:11;100321.78;;;15.57;84.07
49835;BME280;35729;52.090;13.162;2023-09-19T05:50:41;100326.94;;;15.60;83.42
49835;BME280;35729;52.090;13.162;2023-09-19T05:53:14;100326.00;;;15.61;82.78
49835;BME280;35729;52.090;13.162;2023-09-19T05:55:44;100325.69;;;15.67;82.98
49835;BME280;35729;52.090;13.162;2023-09-19T05:58:12;100326.47;;;15.69;82.57
49835;BME280;35729;52.090;13.162;2023-09-19T06:00:42;100335.09;;;15.73;82.33
49835;BME280;35729;52.090;13.162;2023-09-19T06:03:13;100334.09;;;15.75;82.37
49835;BME280;35729;52.090;13.162;2023-09-19T06:05:42;100338.28;;;15.79;81.87
49835;BME280;35729;52.090;13.162;2023-09-19T06:08:36;100341.63;;;15.85;81.24
49835;BME280;35729;52.090;13.162;2023-09-19T06:11:04;100349.47;;;15.86;81.47
49835;BME280;35729;52.090;13.162;2023-09-19T06:13:34;100354.50;;;15.91;81.24
49835;BME280;35729;52.090;13.162;2023-09-19T06:16:04;100349.94;;;15.94;81.33
49835;BME280;35729;52.090;13.162;2023-09-19T06:18:35;100349.78;;;15.98;81.41
49835;BME280;35729;52.090;13.162;2023-09-19T06:21:03;100356.63;;;16.02;80.92
49835;BME280;35729;52.090;13.162;2023-09-19T06:23:35;100352.13;;;16.04;80.95
49835;BME280;35729;52.090;13.162;2023-09-19T06:26:04;100352.81;;;16.07;80.81
49835;BME280;35729;52.090;13.162;2023-09-19T06:28:40;100365.91;;;16.10;80.60
49835;BME280;35729;52.090;13.162;2023-09-19T06:31:14;100364.03;;;16.12;80.56
49835;BME280;35729;52.090;13.162;2023-09-19T06:33:43;100368.22;;;16.17;80.55
49835;BME280;35729;52.090;13.162;2023-09-19T06:36:12;100358.41;;;16.19;80.38
49835;BME280;35729;52.090;13.162;2023-09-19T06:38:50;100368.75;;;16.23;80.74
49835;BME280;35729;52.090;13.162;2023-09-19T06:41:19;100363.47;;;16.23;80.53
49835;BME280;35729;52.090;13.162;2023-09-19T06:43:50;100365.88;;;16.28;81.05
49835;BME280;35729;52.090;13.162;2023-09-19T06:46:19;100373.66;;;16.31;81.49
49835;BME280;35729;52.090;13.162;2023-09-19T06:48:47;100371.88;;;16.32;81.62
49835;BME280;35729;52.090;13.162;2023-09-19T06:51:18;100369.94;;;16.35;81.93
49835;BME280;35729;52.090;13.162;2023-09-19T06:53:46;100379.50;;;16.38;82.43
49835;BME280;35729;52.090;13.162;2023-09-19T06:56:17;100375.84;;;16.40;82.67
49835;BME280;35729;52.090;13.162;2023-09-19T06:58:50;100387.81;;;16.48;82.71
49835;BME280;35729;52.090;13.162;2023-09-19T07:01:18;100388.41;;;16.53;82.72
49835;BME280;35729;52.090;13.162;2023-09-19T07:03:47;100389.91;;;16.58;82.96
49835;BME280;35729;52.090;13.162;2023-09-19T07:06:15;100388.72;;;16.64;82.64
49835;BME280;35729;52.090;13.162;2023-09-19T07:08:44;100391.75;;;16.74;82.92
49835;BME280;35729;52.090;13.162;2023-09-19T07:11:12;100392.13;;;16.84;82.32
49835;BME280;35729;52.090;13.162;2023-09-19T07:13:43;100395.22;;;16.92;81.03
49835;BME280;35729;52.090;13.162;2023-09-19T07:16:12;100400.97;;;17.00;79.99
49835;BME280;35729;52.090;13.162;2023-09-19T07:18:52;100413.72;;;17.09;77.96
49835;BME280;35729;52.090;13.162;2023-09-19T07:21:22;100411.44;;;17.19;76.85
49835;BME280;35729;52.090;13.162;2023-09-19T07:23:50;100404.69;;;17.30;75.10
49835;BME280;35729;52.090;13.162;2023-09-19T07:26:19;100421.72;;;17.41;74.48
49835;BME280;35729;52.090;13.162;2023-09-19T07:28:50;100417.41;;;17.55;73.68
49835;BME280;35729;52.090;13.162;2023-09-19T07:31:18;100425.63;;;17.66;72.49
49835;BME280;35729;52.090;13.162;2023-09-19T07:33:48;100416.28;;;17.75;71.34
49835;BME280;35729;52.090;13.162;2023-09-19T07:36:17;100442.97;;;17.88;67.69
49835;BME280;35729;52.090;13.162;2023-09-19T07:38:45;100433.56;;;17.98;67.57
49835;BME280;35729;52.090;13.162;2023-09-19T07:41:14;100456.16;;;18.05;64.11
49835;BME280;35729;52.090;13.162;2023-09-19T07:43:42;100450.41;;;18.13;65.91
49835;BME280;35729;52.090;13.162;2023-09-19T07:46:13;100444.94;;;18.16;62.94
49835;BME280;35729;52.090;13.162;2023-09-19T07:48:42;100444.66;;;18.21;59.64
49835;BME280;35729;52.090;13.162;2023-09-19T07:51:14;100443.56;;;18.25;61.17
49835;BME280;35729;52.090;13.162;2023-09-19T07:53:42;100457.56;;;18.27;60.20
49835;BME280;35729;52.090;13.162;2023-09-19T07:56:11;100450.28;;;18.31;59.92
49835;BME280;35729;52.090;13.162;2023-09-19T07:58:40;100491.84;;;18.32;57.26
49835;BME280;35729;52.090;13.162;2023-09-19T08:01:10;100467.84;;;18.33;57.52
49835;BME280;35729;52.090;13.162;2023-09-19T08:03:42;100467.84;;;18.33;55.66
49835;BME280;35729;52.090;13.162;2023-09-19T08:06:10;100468.41;;;18.38;57.38
49835;BME280;35729;52.090;13.162;2023-09-19T08:08:39;100468.25;;;18.42;57.13
49835;BME280;35729;52.090;13.162;2023-09-19T08:11:08;100476.03;;;18.45;56.71
49835;BME280;35729;52.090;13.162;2023-09-19T08:13:37;100478.69;;;18.45;55.07
49835;BME280;35729;52.090;13.162;2023-09-19T08:16:08;100474.16;;;18.47;55.19
49835;BME280;35729;52.090;13.162;2023-09-19T08:18:37;100483.16;;;18.44;52.43
49835;BME280;35729;52.090;13.162;2023-09-19T08:21:11;100476.72;;;18.48;53.29
49835;BME280;35729;52.090;13.162;2023-09-19T08:23:39;100486.50;;;18.48;50.85
49835;BME280;35729;52.090;13.162;2023-09-19T08:26:08;100482.91;;;18.49;53.63
49835;BME280;35729;52.090;13.162;2023-09-19T08:28:37;100475.88;;;18.48;52.13
49835;BME280;35729;52.090;13.162;2023-09-19T08:31:07;100485.72;;;18.46;51.64
49835;BME280;35729;52.090;13.162;2023-09-19T08:33:36;100468.84;;;18.47;53.98
49835;BME280;35729;52.090;13.162;2023-09-19T08:36:08;100473.22;;;18.48;53.08
49835;BME280;35729;52.090;13.162;2023-09-19T08:38:39;100465.41;;;18.45;51.80
49835;BME280;35729;52.090;13.162;2023-09-19T08:41:08;100466.53;;;18.40;53.89
49835;BME280;35729;52.090;13.162;2023-09-19T08:43:36;100473.66;;;18.40;52.56
49835;BME280;35729;52.090;13.162;2023-09-19T08:46:09;100474.69;;;18.37;52.73
49835;BME280;35729;52.090;13.162;2023-09-19T08:48:45;100474.69;;;18.37;52.09
49835;BME280;35729;52.090;13.162;2023-09-19T08:51:26;100470.50;;;18.33;52.73
49835;BME280;35729;52.090;13.162;2023-09-19T08:54:03;100470.69;;;18.30;52.86
49835;BME280;35729;52.090;13.162;2023-09-19T08:56:32;100480.63;;;18.27;53.77
49835;BME280;35729;52.090;13.162;2023-09-19T08:59:03;100487.91;;;18.23;52.25
49835;BME280;35729;52.090;13.162;2023-09-19T09:01:33;100499.66;;;18.19;52.83
49835;BME280;35729;52.090;13.162;2023-09-19T09:04:03;100499.81;;;18.16;52.80
49835;BME280;35729;52.090;13.162;2023-09-19T09:06:37;100498.38;;;18.10;51.35
49835;BME280;35729;52.090;13.162;2023-09-19T09:09:06;100507.63;;;18.19;52.83
49835;BME280;35729;52.090;13.162;2023-09-19T09:11:36;100503.06;;;18.21;52.64
49835;BME280;35729;52.090;13.162;2023-09-19T09:14:06;100510.19;;;18.20;52.15
49835;BME280;35729;52.090;13.162;2023-09-19T09:16:35;100510.19;;;18.20;52.51
49835;BME280;35729;52.090;13.162;2023-09-19T09:19:04;100514.66;;;18.20;52.58
49835;BME280;35729;52.090;13.162;2023-09-19T09:21:33;100527.16;;;18.18;52.28
49835;BME280;35729;52.090;13.162;2023-09-19T09:24:30;100514.13;;;18.13;51.82
49835;BME280;35729;52.090;13.162;2023-09-19T09:26:59;100514.31;;;18.10;53.40
49835;BME280;35729;52.090;13.162;2023-09-19T09:29:44;100500.34;;;18.06;52.09
49835;BME280;35729;52.090;13.162;2023-09-19T09:32:21;100501.47;;;18.02;53.00
49835;BME280;35729;52.090;13.162;2023-09-19T09:34:51;100499.19;;;17.96;54.10
49835;BME280;35729;52.090;13.162;2023-09-19T09:37:21;100508.91;;;17.96;54.30
49835;BME280;35729;52.090;13.162;2023-09-19T09:39:54;100506.25;;;17.96;54.36
49835;BME280;35729;52.090;13.162;2023-09-19T09:42:36;100521.16;;;17.98;54.78
49835;BME280;35729;52.090;13.162;2023-09-19T09:45:16;100516.72;;;17.99;54.66
49835;BME280;35729;52.090;13.162;2023-09-19T09:47:46;100522.81;;;18.01;54.85
49835;BME280;35729;52.090;13.162;2023-09-19T09:50:26;100524.25;;;18.06;54.90
49835;BME280;35729;52.090;13.162;2023-09-19T09:53:03;100519.53;;;18.12;54.46
49835;BME280;35729;52.090;13.162;2023-09-19T09:56:01;100520.31;;;18.14;53.79
49835;BME280;35729;52.090;13.162;2023-09-19T09:58:31;100524.50;;;18.18;54.67
49835;BME280;35729;52.090;13.162;2023-09-19T10:01:07;100532.91;;;18.26;52.16
49835;BME280;35729;52.090;13.162;2023-09-19T10:03:42;100520.94;;;18.33;53.33
49835;BME280;35729;52.090;13.162;2023-09-19T10:06:14;100539.38;;;18.36;52.97
49835;BME280;35729;52.090;13.162;2023-09-19T10:09:01;100534.66;;;18.42;52.66
49835;BME280;35729;52.090;13.162;2023-09-19T10:11:46;100538.69;;;18.49;51.68
49835;BME280;35729;52.090;13.162;2023-09-19T10:14:25;100538.22;;;18.56;52.62
49835;BME280;35729;52.090;13.162;2023-09-19T10:16:58;100542.50;;;18.59;51.93
49835;BME280;35729;52.090;13.162;2023-09-19T10:19:30;100532.56;;;18.63;52.18
49835;BME280;35729;52.090;13.162;2023-09-19T10:22:05;100529.44;;;18.70;51.99
49835;BME280;35729;52.090;13.162;2023-09-19T10:24:36;100533.41;;;18.78;51.27
49835;BME280;35729;52.090;13.162;2023-09-19T10:27:09;100544.63;;;18.83;50.80
49835;BME280;35729;52.090;13.162;2023-09-19T10:29:39;100532.00;;;18.86;50.64
49835;BME280;35729;52.090;13.162;2023-09-19T10:32:08;100540.59;;;18.92;50.66
49835;BME280;35729;52.090;13.162;2023-09-19T10:34:51;100529.81;;;18.95;49.44
49835;BME280;35729;52.090;13.162;2023-09-19T10:37:22;100540.91;;;19.01;50.50
49835;BME280;35729;52.090;13.162;2023-09-19T10:39:53;100548.50;;;19.08;50.31
49835;BME280;35729;52.090;13.162;2023-09-19T10:42:27;100532.19;;;19.14;50.49
49835;BME280;35729;52.090;13.162;2023-09-19T10:44:58;100538.09;;;19.19;50.04
49835;BME280;35729;52.090;13.162;2023-09-19T10:47:29;100533.34;;;19.24;48.86
49835;BME280;35729;52.090;13.162;2023-09-19T10:49:58;100531.53;;;19.25;48.18
49835;BME280;35729;52.090;13.162;2023-09-19T10:52:27;100546.53;;;19.26;48.27
49835;BME280;35729;52.090;13.162;2023-09-19T10:54:58;100525.56;;;19.21;48.10
49835;BME280;35729;52.090;13.162;2023-09-19T10:57:30;100515.75;;;19.21;48.32
49835;BME280;35729;52.090;13.162;2023-09-19T11:00:04;100510.34;;;19.23;48.38
49835;BME280;35729;52.090;13.162;2023-09-19T11:03:17;100513.56;;;19.28;47.52
49835;BME280;35729;52.090;13.162;2023-09-19T11:06:04;100514.91;;;19.35;47.16
49835;BME280;35729;52.090;13.162;2023-09-19T11:08:56;100521.25;;;19.47;47.52
49835;BME280;35729;52.090;13.162;2023-09-19T11:11:40;100510.72;;;19.60;47.58
49835;BME280;35729;52.090;13.162;2023-09-19T11:14:29;100520.47;;;19.74;46.84
49835;BME280;35729;52.090;13.162;2023-09-19T11:20:22;100513.81;;;19.96;45.23
49835;BME280;35729;52.090;13.162;2023-09-19T11:23:21;100532.78;;;20.04;45.42
49835;BME280;35729;52.090;13.162;2023-09-19T11:25:53;100523.56;;;20.10;45.38
49835;BME280;35729;52.090;13.162;2023-09-19T11:28:32;100522.38;;;20.14;44.84
49835;BME280;35729;52.090;13.162;2023-09-19T11:34:39;100535.00;;;20.25;44.46
49835;BME280;35729;52.090;13.162;2023-09-19T11:40:08;100521.47;;;20.28;46.22
49835;BME280;35729;52.090;13.162;2023-09-19T11:42:43;100520.00;;;20.37;46.06
49835;BME280;35729;52.090;13.162;2023-09-19T11:48:26;100516.25;;;20.66;45.88
49835;BME280;35729;52.090;13.162;2023-09-19T11:50:55;100521.75;;;20.78;45.97
49835;BME280;35729;52.090;13.162;2023-09-19T11:53:31;100531.88;;;20.86;44.44
49835;BME280;35729;52.090;13.162;2023-09-19T11:56:04;100528.56;;;20.95;45.25
49835;BME280;35729;52.090;13.162;2023-09-19T11:58:36;100527.09;;;21.04;45.10
49835;BME280;35729;52.090;13.162;2023-09-19T12:01:05;100526.66;;;21.10;44.76
49835;BME280;35729;52.090;13.162;2023-09-19T12:03:43;100533.72;;;21.11;43.16
49835;BME280;35729;52.090;13.162;2023-09-19T12:06:14;100535.63;;;21.09;44.10
49835;BME280;35729;52.090;13.162;2023-09-19T12:08:43;100540.53;;;21.02;43.16
49835;BME280;35729;52.090;13.162;2023-09-19T12:11:13;100532.09;;;20.95;43.79
49835;BME280;35729;52.090;13.162;2023-09-19T12:13:44;100535.94;;;20.91;43.26
49835;BME280;35729;52.090;13.162;2023-09-19T12:16:14;100536.69;;;20.93;43.11
49835;BME280;35729;52.090;13.162;2023-09-19T12:18:46;100531.13;;;20.96;41.93
49835;BME280;35729;52.090;13.162;2023-09-19T12:21:25;100528.16;;;21.01;40.89
49835;BME280;35729;52.090;13.162;2023-09-19T12:23:58;100527.63;;;21.09;40.65
49835;BME280;35729;52.090;13.162;2023-09-19T12:26:27;100535.19;;;21.15;40.91
49835;BME280;35729;52.090;13.162;2023-09-19T12:28:59;100546.41;;;21.20;39.42
49835;BME280;35729;52.090;13.162;2023-09-19T12:31:30;100533.94;;;21.21;37.80
49835;BME280;35729;52.090;13.162;2023-09-19T12:34:05;100527.28;;;21.26;39.49
49835;BME280;35729;52.090;13.162;2023-09-19T12:36:36;100536.34;;;21.37;39.13
49835;BME280;35729;52.090;13.162;2023-09-19T12:39:11;100531.09;;;21.48;39.47
49835;BME280;35729;52.090;13.162;2023-09-19T12:41:40;100535.09;;;21.55;38.84
49835;BME280;35729;52.090;13.162;2023-09-19T12:44:10;100521.94;;;21.65;39.73
49835;BME280;35729;52.090;13.162;2023-09-19T12:46:39;100527.75;;;21.83;40.00
49835;BME280;35729;52.090;13.162;2023-09-19T12:49:19;100525.47;;;22.03;37.69
49835;BME280;35729;52.090;13.162;2023-09-19T12:51:49;100526.25;;;22.16;38.90
49835;BME280;35729;52.090;13.162;2023-09-19T12:54:18;100516.56;;;22.26;38.20
49835;BME280;35729;52.090;13.162;2023-09-19T12:56:47;100518.56;;;22.36;38.09
49835;BME280;35729;52.090;13.162;2023-09-19T12:59:16;100510.97;;;22.42;38.61
49835;BME280;35729;52.090;13.162;2023-09-19T13:01:45;100529.22;;;22.49;38.19
49835;BME280;35729;52.090;13.162;2023-09-19T13:04:19;100506.13;;;22.48;38.18
49835;BME280;35729;52.090;13.162;2023-09-19T13:06:52;100511.22;;;22.51;37.94
49835;BME280;35729;52.090;13.162;2023-09-19T13:09:22;100512.72;;;22.55;37.51
49835;BME280;35729;52.090;13.162;2023-09-19T13:12:00;100503.16;;;22.64;37.60
49835;BME280;35729;52.090;13.162;2023-09-19T13:14:29;100497.56;;;22.78;37.34
49835;BME280;35729;52.090;13.162;2023-09-19T13:17:04;100513.03;;;22.86;36.78
49835;BME280;35729;52.090;13.162;2023-09-19T13:19:44;100508.16;;;22.80;36.92